sensor_id;sensor_type;location;lat;lon;timestamp;P1;durP1;ratioP1;P2;durP2;ratioP2
5841;SDS011;2947;52.276;9.946;2022-11-25T00:01:07;18.03;;;6.00;;
5841;SDS011;2947;52.276;9.946;2022-11-25T00:03:38;14.63;;;4.87;;
5841;SDS011;2947;52.276;9.946;2022-11-25T00:06:13;12.53;;;5.73;;
5841;SDS011;2947;52.276;9.946;2022-11-25T00:08:40;12.47;;;5.33;;
5841;SDS011;2947;52.276;9.946;2022-11-25T00:11:08;14.93;;;5.53;;
5841;SDS011;2947;52.276;9.946;2022-11-25T00:13:36;8.63;;;5.00;;
5841;SDS011;2947;52.276;9.946;2022-11-25T00:16:06;17.43;;;7.93;;
5841;SDS011;2947;52.276;9.946;2022-11-25T00:18:34;12.50;;;5.33;;
5841;SDS011;2947;52.276;9.946;2022-11-25T00:21:05;19.43;;;5.57;;
5841;SDS011;2947;52.276;9.946;2022-11-25T00:23:37;15.87;;;4.70;;
5841;SDS011;2947;52.276;9.946;2022-11-25T00:26:10;15.43;;;4.63;;
5841;SDS011;2947;52.276;9.946;2022-11-25T00:28:39;17.33;;;5.47;;
5841;SDS011;2947;52.276;9.946;2022-11-25T00:31:07;10.87;;;4.70;;
5841;SDS011;2947;52.276;9.946;2022-11-25T00:33:37;20.17;;;5.30;;
5841;SDS011;2947;52.276;9.946;2022-11-25T00:36:05;9.30;;;4.53;;
5841;SDS011;2947;52.276;9.946;2022-11-25T00:38:39;11.30;;;4.70;;
5841;SDS011;2947;52.276;9.946;2022-11-25T00:41:04;14.10;;;6.30;;
5841;SDS011;2947;52.276;9.946;2022-11-25T00:43:48;18.93;;;5.10;;
5841;SDS011;2947;52.276;9.946;2022-11-25T00:46:32;16.40;;;4.97;;
5841;SDS011;2947;52.276;9.946;2022-11-25T00:48:58;13.30;;;4.77;;
5841;SDS011;2947;52.276;9.946;2022-11-25T00:51:24;17.40;;;4.50;;
5841;SDS011;2947;52.276;9.946;2022-11-25T00:53:49;8.87;;;4.00;;
5841;SDS011;2947;52.276;9.946;2022-11-25T00:56:15;22.17;;;4.50;;
5841;SDS011;2947;52.276;9.946;2022-11-25T00:58:41;7.70;;;3.60;;
5841;SDS011;2947;52.276;9.946;2022-11-25T01:01:09;10.20;;;3.90;;
5841;SDS011;2947;52.276;9.946;2022-11-25T01:03:36;9.07;;;3.50;;
5841;SDS011;2947;52.276;9.946;2022-11-25T01:06:02;11.27;;;3.83;;
5841;SDS011;2947;52.276;9.946;2022-11-25T01:08:31;13.93;;;3.70;;
5841;SDS011;2947;52.276;9.946;2022-11-25T01:11:02;12.93;;;3.67;;
5841;SDS011;2947;52.276;9.946;2022-11-25T01:13:31;8.30;;;3.63;;
5841;SDS011;2947;52.276;9.946;2022-11-25T01:16:04;16.60;;;4.30;;
5841;SDS011;2947;52.276;9.946;2022-11-25T01:18:32;10.20;;;3.60;;
5841;SDS011;2947;52.276;9.946;2022-11-25T01:21:07;10.33;;;3.40;;
5841;SDS011;2947;52.276;9.946;2022-11-25T01:23:45;7.67;;;2.83;;
5841;SDS011;2947;52.276;9.946;2022-11-25T01:26:16;9.17;;;3.83;;
5841;SDS011;2947;52.276;9.946;2022-11-25T01:28:45;14.60;;;3.90;;
5841;SDS011;2947;52.276;9.946;2022-11-25T01:31:16;17.23;;;3.80;;
5841;SDS011;2947;52.276;9.946;2022-11-25T01:33:44;13.33;;;3.00;;
5841;SDS011;2947;52.276;9.946;2022-11-25T01:36:15;9.03;;;3.53;;
5841;SDS011;2947;52.276;9.946;2022-11-25T01:38:42;13.47;;;3.77;;
5841;SDS011;2947;52.276;9.946;2022-11-25T01:41:11;12.93;;;3.10;;
5841;SDS011;2947;52.276;9.946;2022-11-25T01:43:38;12.27;;;2.70;;
5841;SDS011;2947;52.276;9.946;2022-11-25T01:46:21;17.97;;;3.40;;
5841;SDS011;2947;52.276;9.946;2022-11-25T01:48:53;9.87;;;3.03;;
5841;SDS011;2947;52.276;9.946;2022-11-25T01:51:39;18.13;;;3.03;;
5841;SDS011;2947;52.276;9.946;2022-11-25T01:54:15;17.53;;;3.30;;
5841;SDS011;2947;52.276;9.946;2022-11-25T01:56:47;15.13;;;3.23;;
5841;SDS011;2947;52.276;9.946;2022-11-25T01:59:18;13.77;;;3.40;;
5841;SDS011;2947;52.276;9.946;2022-11-25T02:01:43;14.10;;;3.00;;
5841;SDS011;2947;52.276;9.946;2022-11-25T02:04:09;13.30;;;3.33;;
5841;SDS011;2947;52.276;9.946;2022-11-25T02:06:39;13.27;;;3.13;;
5841;SDS011;2947;52.276;9.946;2022-11-25T02:09:13;10.93;;;2.53;;
5841;SDS011;2947;52.276;9.946;2022-11-25T02:11:39;18.23;;;3.30;;
5841;SDS011;2947;52.276;9.946;2022-11-25T02:14:08;9.33;;;2.93;;
5841;SDS011;2947;52.276;9.946;2022-11-25T02:16:36;8.60;;;3.20;;
5841;SDS011;2947;52.276;9.946;2022-11-25T02:19:02;12.40;;;2.60;;
5841;SDS011;2947;52.276;9.946;2022-11-25T02:21:30;11.63;;;3.20;;
5841;SDS011;2947;52.276;9.946;2022-11-25T02:24:09;7.83;;;3.00;;
5841;SDS011;2947;52.276;9.946;2022-11-25T02:27:05;16.40;;;3.20;;
5841;SDS011;2947;52.276;9.946;2022-11-25T02:29:31;8.70;;;2.33;;
5841;SDS011;2947;52.276;9.946;2022-11-25T02:31:57;12.57;;;3.50;;
5841;SDS011;2947;52.276;9.946;2022-11-25T02:34:23;13.37;;;2.27;;
5841;SDS011;2947;52.276;9.946;2022-11-25T02:36:49;17.73;;;2.50;;
5841;SDS011;2947;52.276;9.946;2022-11-25T02:39:15;17.87;;;2.87;;
5841;SDS011;2947;52.276;9.946;2022-11-25T02:41:44;14.60;;;3.07;;
5841;SDS011;2947;52.276;9.946;2022-11-25T02:44:17;9.30;;;2.73;;
5841;SDS011;2947;52.276;9.946;2022-11-25T02:46:44;20.33;;;3.13;;
5841;SDS011;2947;52.276;9.946;2022-11-25T02:49:10;10.90;;;2.40;;
5841;SDS011;2947;52.276;9.946;2022-11-25T02:51:36;8.67;;;2.10;;
5841;SDS011;2947;52.276;9.946;2022-11-25T02:54:04;14.53;;;2.60;;
5841;SDS011;2947;52.276;9.946;2022-11-25T02:56:31;12.87;;;2.80;;
5841;SDS011;2947;52.276;9.946;2022-11-25T02:58:59;9.60;;;2.23;;
5841;SDS011;2947;52.276;9.946;2022-11-25T03:01:25;9.07;;;2.70;;
5841;SDS011;2947;52.276;9.946;2022-11-25T03:03:52;18.23;;;2.93;;
5841;SDS011;2947;52.276;9.946;2022-11-25T03:06:17;14.17;;;2.70;;
5841;SDS011;2947;52.276;9.946;2022-11-25T03:08:43;7.50;;;2.27;;
5841;SDS011;2947;52.276;9.946;2022-11-25T03:11:09;6.33;;;2.60;;
5841;SDS011;2947;52.276;9.946;2022-11-25T03:13:35;13.60;;;4.13;;
5841;SDS011;2947;52.276;9.946;2022-11-25T03:16:00;10.20;;;2.27;;
5841;SDS011;2947;52.276;9.946;2022-11-25T03:18:26;7.23;;;1.83;;
5841;SDS011;2947;52.276;9.946;2022-11-25T03:20:52;8.73;;;2.37;;
5841;SDS011;2947;52.276;9.946;2022-11-25T03:23:19;12.93;;;2.67;;
5841;SDS011;2947;52.276;9.946;2022-11-25T03:25:46;20.20;;;3.10;;
5841;SDS011;2947;52.276;9.946;2022-11-25T03:28:12;12.30;;;2.93;;
5841;SDS011;2947;52.276;9.946;2022-11-25T03:30:38;10.20;;;2.43;;
5841;SDS011;2947;52.276;9.946;2022-11-25T03:33:04;15.13;;;3.00;;
5841;SDS011;2947;52.276;9.946;2022-11-25T03:35:30;11.63;;;2.50;;
5841;SDS011;2947;52.276;9.946;2022-11-25T03:37:56;6.43;;;2.13;;
5841;SDS011;2947;52.276;9.946;2022-11-25T03:40:21;8.77;;;2.13;;
5841;SDS011;2947;52.276;9.946;2022-11-25T03:42:47;11.13;;;2.47;;
5841;SDS011;2947;52.276;9.946;2022-11-25T03:45:13;9.93;;;2.10;;
5841;SDS011;2947;52.276;9.946;2022-11-25T03:47:41;6.27;;;2.40;;
5841;SDS011;2947;52.276;9.946;2022-11-25T03:50:09;15.43;;;2.60;;
5841;SDS011;2947;52.276;9.946;2022-11-25T03:52:37;21.37;;;3.13;;
5841;SDS011;2947;52.276;9.946;2022-11-25T03:55:03;7.70;;;2.30;;
5841;SDS011;2947;52.276;9.946;2022-11-25T03:57:30;9.40;;;2.13;;
5841;SDS011;2947;52.276;9.946;2022-11-25T03:59:57;5.40;;;1.40;;
5841;SDS011;2947;52.276;9.946;2022-11-25T04:02:22;13.50;;;2.80;;
5841;SDS011;2947;52.276;9.946;2022-11-25T04:04:48;7.73;;;1.97;;
5841;SDS011;2947;52.276;9.946;2022-11-25T04:07:14;10.97;;;2.80;;
5841;SDS011;2947;52.276;9.946;2022-11-25T04:09:40;12.13;;;2.30;;
5841;SDS011;2947;52.276;9.946;2022-11-25T04:12:05;11.33;;;2.67;;
5841;SDS011;2947;52.276;9.946;2022-11-25T04:14:50;15.27;;;2.27;;
5841;SDS011;2947;52.276;9.946;2022-11-25T04:17:15;14.80;;;3.00;;
5841;SDS011;2947;52.276;9.946;2022-11-25T04:19:41;16.50;;;3.50;;
5841;SDS011;2947;52.276;9.946;2022-11-25T04:22:07;17.50;;;3.43;;
5841;SDS011;2947;52.276;9.946;2022-11-25T04:24:33;12.70;;;2.30;;
5841;SDS011;2947;52.276;9.946;2022-11-25T04:26:59;9.33;;;2.70;;
5841;SDS011;2947;52.276;9.946;2022-11-25T04:29:25;25.33;;;3.30;;
5841;SDS011;2947;52.276;9.946;2022-11-25T04:31:50;14.03;;;3.00;;
5841;SDS011;2947;52.276;9.946;2022-11-25T04:34:16;19.80;;;3.60;;
5841;SDS011;2947;52.276;9.946;2022-11-25T04:36:42;11.73;;;2.37;;
5841;SDS011;2947;52.276;9.946;2022-11-25T04:39:07;8.30;;;2.33;;
5841;SDS011;2947;52.276;9.946;2022-11-25T04:41:33;11.70;;;2.70;;
5841;SDS011;2947;52.276;9.946;2022-11-25T04:43:59;8.70;;;2.10;;
5841;SDS011;2947;52.276;9.946;2022-11-25T04:46:25;9.43;;;2.10;;
5841;SDS011;2947;52.276;9.946;2022-11-25T04:48:58;7.20;;;2.50;;
5841;SDS011;2947;52.276;9.946;2022-11-25T04:51:23;13.17;;;2.87;;
5841;SDS011;2947;52.276;9.946;2022-11-25T04:53:49;14.23;;;2.37;;
5841;SDS011;2947;52.276;9.946;2022-11-25T04:56:16;19.60;;;2.90;;
5841;SDS011;2947;52.276;9.946;2022-11-25T04:58:43;15.30;;;2.70;;
5841;SDS011;2947;52.276;9.946;2022-11-25T05:01:28;16.10;;;2.83;;
5841;SDS011;2947;52.276;9.946;2022-11-25T05:03:54;18.73;;;2.80;;
5841;SDS011;2947;52.276;9.946;2022-11-25T05:06:20;10.53;;;2.43;;
5841;SDS011;2947;52.276;9.946;2022-11-25T05:08:49;8.77;;;2.70;;
5841;SDS011;2947;52.276;9.946;2022-11-25T05:11:15;8.63;;;2.37;;
5841;SDS011;2947;52.276;9.946;2022-11-25T05:13:41;7.93;;;2.60;;
5841;SDS011;2947;52.276;9.946;2022-11-25T05:16:07;13.83;;;2.80;;
5841;SDS011;2947;52.276;9.946;2022-11-25T05:18:33;9.50;;;2.90;;
5841;SDS011;2947;52.276;9.946;2022-11-25T05:21:02;11.97;;;2.50;;
5841;SDS011;2947;52.276;9.946;2022-11-25T05:23:29;16.10;;;2.67;;
5841;SDS011;2947;52.276;9.946;2022-11-25T05:26:02;10.50;;;3.13;;
5841;SDS011;2947;52.276;9.946;2022-11-25T05:28:28;15.00;;;3.10;;
5841;SDS011;2947;52.276;9.946;2022-11-25T05:30:55;10.53;;;2.80;;
5841;SDS011;2947;52.276;9.946;2022-11-25T05:33:21;20.57;;;3.20;;
5841;SDS011;2947;52.276;9.946;2022-11-25T05:35:54;19.50;;;2.73;;
5841;SDS011;2947;52.276;9.946;2022-11-25T05:38:21;12.50;;;2.70;;
5841;SDS011;2947;52.276;9.946;2022-11-25T05:40:47;6.60;;;2.53;;
5841;SDS011;2947;52.276;9.946;2022-11-25T05:43:13;11.27;;;2.10;;
5841;SDS011;2947;52.276;9.946;2022-11-25T05:45:38;7.00;;;2.00;;
5841;SDS011;2947;52.276;9.946;2022-11-25T05:48:04;13.53;;;3.10;;
5841;SDS011;2947;52.276;9.946;2022-11-25T05:50:30;13.23;;;2.30;;
5841;SDS011;2947;52.276;9.946;2022-11-25T05:52:55;9.40;;;2.97;;
5841;SDS011;2947;52.276;9.946;2022-11-25T05:55:21;9.20;;;2.63;;
5841;SDS011;2947;52.276;9.946;2022-11-25T05:57:47;9.60;;;2.80;;
5841;SDS011;2947;52.276;9.946;2022-11-25T06:00:12;9.83;;;3.17;;
5841;SDS011;2947;52.276;9.946;2022-11-25T06:02:39;10.93;;;2.87;;
5841;SDS011;2947;52.276;9.946;2022-11-25T06:05:04;10.33;;;3.10;;
5841;SDS011;2947;52.276;9.946;2022-11-25T06:07:30;21.67;;;2.40;;
5841;SDS011;2947;52.276;9.946;2022-11-25T06:09:56;9.27;;;2.03;;
5841;SDS011;2947;52.276;9.946;2022-11-25T06:12:21;8.80;;;2.63;;
5841;SDS011;2947;52.276;9.946;2022-11-25T06:14:47;13.53;;;2.80;;
5841;SDS011;2947;52.276;9.946;2022-11-25T06:17:15;18.47;;;4.17;;
5841;SDS011;2947;52.276;9.946;2022-11-25T06:19:40;18.50;;;4.90;;
5841;SDS011;2947;52.276;9.946;2022-11-25T06:22:06;15.17;;;5.13;;
5841;SDS011;2947;52.276;9.946;2022-11-25T06:24:32;9.67;;;3.13;;
5841;SDS011;2947;52.276;9.946;2022-11-25T06:26:57;15.67;;;3.40;;
5841;SDS011;2947;52.276;9.946;2022-11-25T06:29:24;6.23;;;2.40;;
5841;SDS011;2947;52.276;9.946;2022-11-25T06:31:50;17.90;;;3.20;;
5841;SDS011;2947;52.276;9.946;2022-11-25T06:34:15;12.00;;;2.57;;
5841;SDS011;2947;52.276;9.946;2022-11-25T06:36:41;6.50;;;2.10;;
5841;SDS011;2947;52.276;9.946;2022-11-25T06:39:07;29.70;;;5.33;;
5841;SDS011;2947;52.276;9.946;2022-11-25T06:41:33;16.73;;;3.10;;
5841;SDS011;2947;52.276;9.946;2022-11-25T06:43:59;16.57;;;4.23;;
5841;SDS011;2947;52.276;9.946;2022-11-25T06:46:24;24.23;;;4.93;;
5841;SDS011;2947;52.276;9.946;2022-11-25T06:48:51;9.60;;;3.20;;
5841;SDS011;2947;52.276;9.946;2022-11-25T06:51:17;9.53;;;2.30;;
5841;SDS011;2947;52.276;9.946;2022-11-25T06:53:43;6.50;;;2.33;;
5841;SDS011;2947;52.276;9.946;2022-11-25T06:56:16;16.13;;;3.83;;
5841;SDS011;2947;52.276;9.946;2022-11-25T06:58:45;14.63;;;2.63;;
5841;SDS011;2947;52.276;9.946;2022-11-25T07:01:13;9.33;;;1.97;;
5841;SDS011;2947;52.276;9.946;2022-11-25T07:03:44;17.70;;;3.13;;
5841;SDS011;2947;52.276;9.946;2022-11-25T07:06:12;10.27;;;2.87;;
5841;SDS011;2947;52.276;9.946;2022-11-25T07:08:39;8.60;;;2.60;;
5841;SDS011;2947;52.276;9.946;2022-11-25T07:11:06;21.20;;;2.80;;
5841;SDS011;2947;52.276;9.946;2022-11-25T07:13:39;20.53;;;3.80;;
5841;SDS011;2947;52.276;9.946;2022-11-25T07:16:05;13.80;;;2.90;;
5841;SDS011;2947;52.276;9.946;2022-11-25T07:18:33;12.07;;;2.93;;
5841;SDS011;2947;52.276;9.946;2022-11-25T07:21:02;7.87;;;2.40;;
5841;SDS011;2947;52.276;9.946;2022-11-25T07:23:33;13.77;;;5.00;;
5841;SDS011;2947;52.276;9.946;2022-11-25T07:26:05;11.00;;;2.90;;
5841;SDS011;2947;52.276;9.946;2022-11-25T07:28:35;11.30;;;2.87;;
5841;SDS011;2947;52.276;9.946;2022-11-25T07:31:09;10.77;;;3.13;;
5841;SDS011;2947;52.276;9.946;2022-11-25T07:33:43;18.47;;;3.30;;
5841;SDS011;2947;52.276;9.946;2022-11-25T07:36:10;7.80;;;3.07;;
5841;SDS011;2947;52.276;9.946;2022-11-25T07:38:37;12.70;;;2.67;;
5841;SDS011;2947;52.276;9.946;2022-11-25T07:41:05;19.83;;;2.63;;
5841;SDS011;2947;52.276;9.946;2022-11-25T07:43:33;12.13;;;2.80;;
5841;SDS011;2947;52.276;9.946;2022-11-25T07:46:09;14.60;;;2.60;;
5841;SDS011;2947;52.276;9.946;2022-11-25T07:49:03;15.33;;;2.20;;
5841;SDS011;2947;52.276;9.946;2022-11-25T07:51:34;12.73;;;2.40;;
5841;SDS011;2947;52.276;9.946;2022-11-25T07:54:06;10.47;;;2.30;;
5841;SDS011;2947;52.276;9.946;2022-11-25T07:56:34;10.60;;;3.00;;
5841;SDS011;2947;52.276;9.946;2022-11-25T07:59:01;16.00;;;2.53;;
5841;SDS011;2947;52.276;9.946;2022-11-25T08:01:27;7.23;;;2.40;;
5841;SDS011;2947;52.276;9.946;2022-11-25T08:03:53;13.80;;;3.57;;
5841;SDS011;2947;52.276;9.946;2022-11-25T08:06:20;6.97;;;2.83;;
5841;SDS011;2947;52.276;9.946;2022-11-25T08:08:49;13.40;;;2.17;;
5841;SDS011;2947;52.276;9.946;2022-11-25T08:11:19;10.30;;;2.70;;
5841;SDS011;2947;52.276;9.946;2022-11-25T08:13:54;12.00;;;3.20;;
5841;SDS011;2947;52.276;9.946;2022-11-25T08:16:21;22.47;;;3.73;;
5841;SDS011;2947;52.276;9.946;2022-11-25T08:18:51;13.30;;;3.03;;
5841;SDS011;2947;52.276;9.946;2022-11-25T08:21:18;15.60;;;2.77;;
5841;SDS011;2947;52.276;9.946;2022-11-25T08:23:44;20.37;;;3.87;;
5841;SDS011;2947;52.276;9.946;2022-11-25T08:26:17;11.90;;;3.83;;
5841;SDS011;2947;52.276;9.946;2022-11-25T08:28:47;13.10;;;3.67;;
5841;SDS011;2947;52.276;9.946;2022-11-25T08:31:32;11.37;;;2.70;;
5841;SDS011;2947;52.276;9.946;2022-11-25T08:34:01;20.03;;;3.30;;
5841;SDS011;2947;52.276;9.946;2022-11-25T08:36:31;6.67;;;2.40;;
5841;SDS011;2947;52.276;9.946;2022-11-25T08:38:59;16.17;;;3.40;;
5841;SDS011;2947;52.276;9.946;2022-11-25T08:41:30;13.57;;;2.97;;
5841;SDS011;2947;52.276;9.946;2022-11-25T08:43:59;13.60;;;4.00;;
5841;SDS011;2947;52.276;9.946;2022-11-25T08:46:29;22.90;;;3.03;;
5841;SDS011;2947;52.276;9.946;2022-11-25T08:49:00;10.23;;;3.40;;
5841;SDS011;2947;52.276;9.946;2022-11-25T08:51:28;15.10;;;3.37;;
5841;SDS011;2947;52.276;9.946;2022-11-25T08:53:57;10.87;;;2.97;;
5841;SDS011;2947;52.276;9.946;2022-11-25T08:56:23;16.20;;;3.97;;
5841;SDS011;2947;52.276;9.946;2022-11-25T08:58:50;20.27;;;2.97;;
5841;SDS011;2947;52.276;9.946;2022-11-25T09:01:17;10.67;;;2.63;;
5841;SDS011;2947;52.276;9.946;2022-11-25T09:03:46;9.60;;;2.67;;
5841;SDS011;2947;52.276;9.946;2022-11-25T09:06:14;13.87;;;3.20;;
5841;SDS011;2947;52.276;9.946;2022-11-25T09:08:42;14.60;;;3.10;;
5841;SDS011;2947;52.276;9.946;2022-11-25T09:11:08;14.57;;;3.40;;
5841;SDS011;2947;52.276;9.946;2022-11-25T09:13:35;13.80;;;2.80;;
5841;SDS011;2947;52.276;9.946;2022-11-25T09:16:01;10.83;;;3.50;;
5841;SDS011;2947;52.276;9.946;2022-11-25T09:18:28;13.93;;;3.00;;
5841;SDS011;2947;52.276;9.946;2022-11-25T09:20:55;16.40;;;2.73;;
5841;SDS011;2947;52.276;9.946;2022-11-25T09:23:22;16.57;;;4.23;;
5841;SDS011;2947;52.276;9.946;2022-11-25T09:25:55;15.43;;;3.63;;
5841;SDS011;2947;52.276;9.946;2022-11-25T09:28:23;10.33;;;3.73;;
5841;SDS011;2947;52.276;9.946;2022-11-25T09:30:50;8.23;;;2.73;;
5841;SDS011;2947;52.276;9.946;2022-11-25T09:33:16;17.40;;;2.80;;
5841;SDS011;2947;52.276;9.946;2022-11-25T09:35:43;18.70;;;3.03;;
5841;SDS011;2947;52.276;9.946;2022-11-25T09:38:09;13.00;;;3.00;;
5841;SDS011;2947;52.276;9.946;2022-11-25T09:49:56;22.13;;;2.97;;
5841;SDS011;2947;52.276;9.946;2022-11-25T09:55:37;7.30;;;2.30;;
5841;SDS011;2947;52.276;9.946;2022-11-25T09:58:24;10.20;;;2.60;;
5841;SDS011;2947;52.276;9.946;2022-11-25T10:01:44;16.50;;;2.60;;
5841;SDS011;2947;52.276;9.946;2022-11-25T10:04:00;7.90;;;2.63;;
5841;SDS011;2947;52.276;9.946;2022-11-25T10:06:37;12.23;;;4.00;;
5841;SDS011;2947;52.276;9.946;2022-11-25T10:09:13;17.47;;;3.33;;
5841;SDS011;2947;52.276;9.946;2022-11-25T10:17:12;13.70;;;2.30;;
5841;SDS011;2947;52.276;9.946;2022-11-25T10:20:04;10.30;;;2.27;;
5841;SDS011;2947;52.276;9.946;2022-11-25T10:22:42;13.97;;;2.40;;
5841;SDS011;2947;52.276;9.946;2022-11-25T10:25:13;13.17;;;2.43;;
5841;SDS011;2947;52.276;9.946;2022-11-25T10:28:04;11.37;;;2.30;;
5841;SDS011;2947;52.276;9.946;2022-11-25T10:31:05;8.60;;;2.40;;
5841;SDS011;2947;52.276;9.946;2022-11-25T10:34:06;14.33;;;2.93;;
5841;SDS011;2947;52.276;9.946;2022-11-25T10:36:56;12.57;;;3.97;;
5841;SDS011;2947;52.276;9.946;2022-11-25T10:39:25;17.83;;;3.10;;
5841;SDS011;2947;52.276;9.946;2022-11-25T10:44:39;7.27;;;2.87;;
5841;SDS011;2947;52.276;9.946;2022-11-25T10:55:20;16.10;;;2.93;;
5841;SDS011;2947;52.276;9.946;2022-11-25T10:57:51;15.33;;;2.53;;
5841;SDS011;2947;52.276;9.946;2022-11-25T11:00:36;13.67;;;2.90;;
5841;SDS011;2947;52.276;9.946;2022-11-25T11:03:24;10.50;;;2.40;;
5841;SDS011;2947;52.276;9.946;2022-11-25T11:05:51;8.73;;;3.50;;
5841;SDS011;2947;52.276;9.946;2022-11-25T11:08:23;8.13;;;2.70;;
5841;SDS011;2947;52.276;9.946;2022-11-25T11:13:36;10.93;;;3.03;;
5841;SDS011;2947;52.276;9.946;2022-11-25T11:16:03;19.57;;;3.20;;
5841;SDS011;2947;52.276;9.946;2022-11-25T11:18:45;11.93;;;3.00;;
5841;SDS011;2947;52.276;9.946;2022-11-25T11:21:21;10.33;;;3.00;;
5841;SDS011;2947;52.276;9.946;2022-11-25T11:23:59;12.83;;;3.30;;
5841;SDS011;2947;52.276;9.946;2022-11-25T11:26:34;8.53;;;2.67;;
5841;SDS011;2947;52.276;9.946;2022-11-25T11:29:05;13.73;;;3.03;;
5841;SDS011;2947;52.276;9.946;2022-11-25T11:31:45;17.23;;;3.30;;
5841;SDS011;2947;52.276;9.946;2022-11-25T11:34:45;8.03;;;3.50;;
5841;SDS011;2947;52.276;9.946;2022-11-25T11:40:13;11.47;;;2.90;;
5841;SDS011;2947;52.276;9.946;2022-11-25T11:43:04;13.83;;;3.30;;
5841;SDS011;2947;52.276;9.946;2022-11-25T11:54:09;12.37;;;3.00;;
5841;SDS011;2947;52.276;9.946;2022-11-25T11:56:48;16.10;;;3.30;;
5841;SDS011;2947;52.276;9.946;2022-11-25T12:10:15;14.50;;;3.00;;
5841;SDS011;2947;52.276;9.946;2022-11-25T12:12:55;12.23;;;3.50;;
5841;SDS011;2947;52.276;9.946;2022-11-25T12:18:33;9.30;;;3.43;;
5841;SDS011;2947;52.276;9.946;2022-11-25T12:29:56;12.67;;;3.60;;
5841;SDS011;2947;52.276;9.946;2022-11-25T12:37:49;12.90;;;4.03;;
5841;SDS011;2947;52.276;9.946;2022-11-25T12:43:50;9.00;;;3.10;;
5841;SDS011;2947;52.276;9.946;2022-11-25T12:46:46;15.77;;;3.20;;
5841;SDS011;2947;52.276;9.946;2022-11-25T12:49:24;10.47;;;3.77;;
5841;SDS011;2947;52.276;9.946;2022-11-25T12:51:59;10.60;;;3.43;;
5841;SDS011;2947;52.276;9.946;2022-11-25T12:54:58;13.53;;;4.03;;
5841;SDS011;2947;52.276;9.946;2022-11-25T13:00:35;8.93;;;3.60;;
5841;SDS011;2947;52.276;9.946;2022-11-25T13:06:31;13.67;;;3.80;;
5841;SDS011;2947;52.276;9.946;2022-11-25T13:15:19;11.60;;;3.87;;
5841;SDS011;2947;52.276;9.946;2022-11-25T13:17:56;8.73;;;4.00;;
5841;SDS011;2947;52.276;9.946;2022-11-25T13:25:35;17.70;;;4.43;;
5841;SDS011;2947;52.276;9.946;2022-11-25T13:28:05;9.97;;;4.63;;
5841;SDS011;2947;52.276;9.946;2022-11-25T13:34:05;8.90;;;4.37;;
5841;SDS011;2947;52.276;9.946;2022-11-25T13:36:46;10.00;;;4.00;;
5841;SDS011;2947;52.276;9.946;2022-11-25T13:39:17;15.30;;;3.83;;
5841;SDS011;2947;52.276;9.946;2022-11-25T13:47:23;16.50;;;4.87;;
5841;SDS011;2947;52.276;9.946;2022-11-25T13:50:01;8.70;;;4.20;;
5841;SDS011;2947;52.276;9.946;2022-11-25T13:52:46;15.40;;;4.47;;
5841;SDS011;2947;52.276;9.946;2022-11-25T13:55:32;9.50;;;4.00;;
5841;SDS011;2947;52.276;9.946;2022-11-25T14:03:48;16.93;;;5.60;;
5841;SDS011;2947;52.276;9.946;2022-11-25T14:06:21;10.60;;;4.70;;
5841;SDS011;2947;52.276;9.946;2022-11-25T14:09:35;10.60;;;3.90;;
5841;SDS011;2947;52.276;9.946;2022-11-25T14:15:09;11.43;;;4.73;;
5841;SDS011;2947;52.276;9.946;2022-11-25T14:24:42;17.70;;;5.17;;
5841;SDS011;2947;52.276;9.946;2022-11-25T14:27:01;14.80;;;5.50;;
5841;SDS011;2947;52.276;9.946;2022-11-25T14:32:07;11.17;;;4.93;;
5841;SDS011;2947;52.276;9.946;2022-11-25T14:34:44;8.43;;;4.47;;
5841;SDS011;2947;52.276;9.946;2022-11-25T14:37:28;15.53;;;5.53;;
5841;SDS011;2947;52.276;9.946;2022-11-25T14:40:07;12.00;;;5.27;;
5841;SDS011;2947;52.276;9.946;2022-11-25T14:42:45;14.70;;;5.30;;
5841;SDS011;2947;52.276;9.946;2022-11-25T14:45:19;13.83;;;5.57;;
5841;SDS011;2947;52.276;9.946;2022-11-25T14:48:12;14.43;;;5.53;;
5841;SDS011;2947;52.276;9.946;2022-11-25T14:50:52;15.63;;;5.90;;
5841;SDS011;2947;52.276;9.946;2022-11-25T14:53:26;13.63;;;6.17;;
5841;SDS011;2947;52.276;9.946;2022-11-25T14:55:54;14.20;;;5.80;;
5841;SDS011;2947;52.276;9.946;2022-11-25T14:58:24;12.87;;;6.30;;
5841;SDS011;2947;52.276;9.946;2022-11-25T15:00:51;17.60;;;6.83;;
5841;SDS011;2947;52.276;9.946;2022-11-25T15:03:44;15.43;;;6.07;;
5841;SDS011;2947;52.276;9.946;2022-11-25T15:06:15;12.77;;;6.77;;
5841;SDS011;2947;52.276;9.946;2022-11-25T15:08:53;20.83;;;6.90;;
5841;SDS011;2947;52.276;9.946;2022-11-25T15:11:23;15.50;;;6.17;;
5841;SDS011;2947;52.276;9.946;2022-11-25T15:13:56;19.20;;;6.67;;
5841;SDS011;2947;52.276;9.946;2022-11-25T15:16:35;14.53;;;5.80;;
5841;SDS011;2947;52.276;9.946;2022-11-25T15:19:05;21.60;;;6.43;;
5841;SDS011;2947;52.276;9.946;2022-11-25T15:21:42;12.13;;;5.70;;
5841;SDS011;2947;52.276;9.946;2022-11-25T15:24:21;10.70;;;6.60;;
5841;SDS011;2947;52.276;9.946;2022-11-25T15:27:13;14.37;;;6.77;;
5841;SDS011;2947;52.276;9.946;2022-11-25T15:29:42;11.83;;;6.23;;
5841;SDS011;2947;52.276;9.946;2022-11-25T15:32:13;17.53;;;6.87;;
5841;SDS011;2947;52.276;9.946;2022-11-25T15:34:54;19.93;;;6.10;;
5841;SDS011;2947;52.276;9.946;2022-11-25T15:37:24;13.40;;;5.93;;
5841;SDS011;2947;52.276;9.946;2022-11-25T15:43:06;12.00;;;5.83;;
5841;SDS011;2947;52.276;9.946;2022-11-25T15:45:50;13.80;;;6.70;;
5841;SDS011;2947;52.276;9.946;2022-11-25T15:48:25;14.53;;;5.87;;
5841;SDS011;2947;52.276;9.946;2022-11-25T15:51:06;21.03;;;7.50;;
5841;SDS011;2947;52.276;9.946;2022-11-25T15:54:03;14.57;;;7.30;;
5841;SDS011;2947;52.276;9.946;2022-11-25T15:56:34;11.93;;;7.10;;
5841;SDS011;2947;52.276;9.946;2022-11-25T15:59:03;21.83;;;8.60;;
5841;SDS011;2947;52.276;9.946;2022-11-25T16:01:28;17.63;;;7.60;;
5841;SDS011;2947;52.276;9.946;2022-11-25T16:04:07;26.97;;;8.13;;
5841;SDS011;2947;52.276;9.946;2022-11-25T16:06:54;18.10;;;8.00;;
5841;SDS011;2947;52.276;9.946;2022-11-25T16:09:23;15.87;;;7.40;;
5841;SDS011;2947;52.276;9.946;2022-11-25T16:11:52;13.10;;;7.70;;
5841;SDS011;2947;52.276;9.946;2022-11-25T16:14:28;19.13;;;7.73;;
5841;SDS011;2947;52.276;9.946;2022-11-25T16:17:02;18.90;;;6.80;;
5841;SDS011;2947;52.276;9.946;2022-11-25T16:19:33;14.80;;;6.93;;
5841;SDS011;2947;52.276;9.946;2022-11-25T16:22:08;17.13;;;8.07;;
5841;SDS011;2947;52.276;9.946;2022-11-25T16:24:40;15.23;;;7.10;;
5841;SDS011;2947;52.276;9.946;2022-11-25T16:29:49;17.00;;;6.40;;
5841;SDS011;2947;52.276;9.946;2022-11-25T16:32:16;17.87;;;9.80;;
5841;SDS011;2947;52.276;9.946;2022-11-25T16:34:44;23.57;;;8.70;;
5841;SDS011;2947;52.276;9.946;2022-11-25T16:37:11;13.70;;;8.20;;
5841;SDS011;2947;52.276;9.946;2022-11-25T16:39:36;18.30;;;8.80;;
5841;SDS011;2947;52.276;9.946;2022-11-25T16:42:03;19.47;;;8.00;;
5841;SDS011;2947;52.276;9.946;2022-11-25T16:44:30;14.93;;;7.40;;
5841;SDS011;2947;52.276;9.946;2022-11-25T16:46:58;15.03;;;7.80;;
5841;SDS011;2947;52.276;9.946;2022-11-25T16:49:24;15.50;;;7.40;;
5841;SDS011;2947;52.276;9.946;2022-11-25T16:51:50;23.03;;;8.97;;
5841;SDS011;2947;52.276;9.946;2022-11-25T16:54:20;13.20;;;7.57;;
5841;SDS011;2947;52.276;9.946;2022-11-25T16:56:47;27.77;;;9.60;;
5841;SDS011;2947;52.276;9.946;2022-11-25T16:59:17;16.60;;;10.03;;
5841;SDS011;2947;52.276;9.946;2022-11-25T17:01:59;26.67;;;11.60;;
5841;SDS011;2947;52.276;9.946;2022-11-25T17:04:26;22.60;;;11.50;;
5841;SDS011;2947;52.276;9.946;2022-11-25T17:06:53;21.10;;;9.97;;
5841;SDS011;2947;52.276;9.946;2022-11-25T17:09:20;19.43;;;9.80;;
5841;SDS011;2947;52.276;9.946;2022-11-25T17:11:46;25.33;;;10.60;;
5841;SDS011;2947;52.276;9.946;2022-11-25T17:14:26;24.27;;;11.30;;
5841;SDS011;2947;52.276;9.946;2022-11-25T17:16:56;37.60;;;18.97;;
5841;SDS011;2947;52.276;9.946;2022-11-25T17:19:23;17.23;;;9.53;;
5841;SDS011;2947;52.276;9.946;2022-11-25T17:21:49;19.77;;;10.67;;
5841;SDS011;2947;52.276;9.946;2022-11-25T17:24:19;16.67;;;9.73;;
5841;SDS011;2947;52.276;9.946;2022-11-25T17:26:54;19.43;;;9.47;;
5841;SDS011;2947;52.276;9.946;2022-11-25T17:29:29;21.03;;;9.93;;
5841;SDS011;2947;52.276;9.946;2022-11-25T17:32:00;17.40;;;9.17;;
5841;SDS011;2947;52.276;9.946;2022-11-25T17:34:26;19.53;;;10.07;;